Skip Navigation Links Skip Navigation Links

Current Weather

Creston Muni, Creston, Iowa

For information only: do not use for flight planning or navigation.
Latest weather
Observation time Tuesday, October 19, 2021 4:15 AM CDT
Local time Tuesday, October 19, 2021 4:39 AM CDT
Flight conditions Visual Meteorological Conditions
Winds
Wind direction South-Southeast (160°)
Wind speed 9 mph
Visibility 10 mi.
Sky condition
Ceiling unlimited
Sky clear
Temperature 50°F
Dewpoint 50°F
Altimeter 29.97 in.Hg
Derived measurements
Relative humidity 100%
Wind chill 46°F
Density altitude 814 ft.
Remarks
Fully automated report.
Automated weather observing station with precipitation discriminator.
METAR KCSQ 190915Z AUTO 16008KT 10SM CLR 10/10 A2997 RMK AO2

Settings

Location code

InnerDrive.Weather 4.0.6770.0 Release CLR 4.0.30319.42000
Copyright ©2018 Inner Drive Technology. All rights reserved. Portions Copyright ©1986-2018 David Braverman.

Find weather

Site navigation


Skip Navigation Links

Place info

Page info

PayPal - The safer, easier way to pay online!

Return home.

Copyright ©2021 Inner Drive Technology. Purveyors of fine, hand-crafted computer software. Page printed 2021-10-19T09:39:45 UTC.